createdAt,value
2023-02-05T00:00:39.356Z,52.50
2023-02-05T00:03:05.935Z,52.69
2023-02-05T00:05:32.824Z,52.54
2023-02-05T00:07:59.534Z,53.09
2023-02-05T00:10:26.076Z,53.52
2023-02-05T00:12:52.637Z,52.80
2023-02-05T00:15:19.159Z,53.29
2023-02-05T00:17:45.683Z,52.63
2023-02-05T00:20:12.174Z,52.59
2023-02-05T00:22:38.702Z,53.20
2023-02-05T00:25:05.841Z,52.85
2023-02-05T00:27:33.750Z,52.68
2023-02-05T00:30:00.306Z,52.33
2023-02-05T00:32:26.814Z,52.64
2023-02-05T00:34:53.302Z,52.91
2023-02-05T00:37:20.019Z,52.61
2023-02-05T00:39:46.540Z,52.99
2023-02-05T00:42:13.024Z,53.09
2023-02-05T00:44:39.522Z,52.58
2023-02-05T00:47:06.017Z,52.48
2023-02-05T00:49:32.596Z,52.78
2023-02-05T00:51:59.224Z,52.29
2023-02-05T00:54:25.776Z,52.27
2023-02-05T00:56:52.299Z,52.34
2023-02-05T00:59:18.803Z,52.50
2023-02-05T01:01:45.463Z,52.48
2023-02-05T01:04:12.042Z,52.35
2023-02-05T01:06:38.529Z,52.99
2023-02-05T01:09:05.121Z,52.61
2023-02-05T01:11:31.643Z,52.52
2023-02-05T01:13:58.250Z,52.53
2023-02-05T01:16:24.824Z,53.01
2023-02-05T01:18:52.701Z,52.78
2023-02-05T01:21:19.249Z,52.91
2023-02-05T01:23:45.770Z,53.22
2023-02-05T01:26:12.293Z,53.53
2023-02-05T01:28:38.823Z,53.17
2023-02-05T01:31:05.572Z,53.60
2023-02-05T01:33:32.138Z,52.85
2023-02-05T01:35:58.679Z,53.24
2023-02-05T01:38:25.329Z,53.03
2023-02-05T01:40:52.002Z,53.69
2023-02-05T01:43:19.191Z,53.33
2023-02-05T01:45:52.114Z,53.38
2023-02-05T01:48:22.593Z,53.35
2023-02-05T01:50:54.466Z,53.68
2023-02-05T01:53:33.607Z,53.25
2023-02-05T01:56:17.440Z,53.66
2023-02-05T01:59:11.279Z,53.68
2023-02-05T02:01:39.391Z,53.23
2023-02-05T02:04:06.235Z,53.49
2023-02-05T02:06:34.875Z,53.35
2023-02-05T02:09:02.834Z,53.66
2023-02-05T02:11:32.266Z,53.08
2023-02-05T02:14:01.149Z,53.67
2023-02-05T02:16:28.820Z,53.88
2023-02-05T02:18:55.588Z,53.44
2023-02-05T02:21:37.589Z,53.54
2023-02-05T02:24:15.877Z,53.92
2023-02-05T02:27:09.790Z,53.62
2023-02-05T02:29:43.650Z,53.81
2023-02-05T02:32:18.634Z,53.53
2023-02-05T02:34:49.688Z,53.64
2023-02-05T02:37:25.469Z,53.89
2023-02-05T02:40:00.435Z,53.24
2023-02-05T02:42:55.763Z,53.62
2023-02-05T02:45:25.706Z,53.24
2023-02-05T02:47:55.897Z,53.93
2023-02-05T02:50:32.834Z,53.30
2023-02-05T02:53:19.170Z,53.50
2023-02-05T02:55:49.299Z,53.75
2023-02-05T02:58:27.627Z,53.52
2023-02-05T03:00:55.246Z,53.45
2023-02-05T03:03:26.466Z,54.16
2023-02-05T03:05:57.010Z,53.69
2023-02-05T03:08:31.017Z,53.21
2023-02-05T03:11:12.618Z,53.99
2023-02-05T03:13:39.633Z,53.57
2023-02-05T03:16:06.856Z,53.47
2023-02-05T03:18:33.557Z,53.39
2023-02-05T03:21:12.682Z,54.29
2023-02-05T03:23:39.602Z,53.83
2023-02-05T03:26:06.175Z,53.58
2023-02-05T03:28:32.705Z,53.65
2023-02-05T03:31:31.422Z,53.70
2023-02-05T03:34:12.600Z,53.46
2023-02-05T03:36:45.168Z,53.32
2023-02-05T03:39:30.543Z,53.84
2023-02-05T03:42:05.338Z,53.92
2023-02-05T03:45:03.772Z,54.21
2023-02-05T03:47:51.537Z,53.86
2023-02-05T03:50:36.026Z,54.50
2023-02-05T03:53:11.647Z,54.20
2023-02-05T03:55:45.049Z,54.21
2023-02-05T03:58:37.730Z,54.34
2023-02-05T04:01:04.601Z,53.22
2023-02-05T04:03:31.144Z,53.94
2023-02-05T04:05:57.703Z,53.96
2023-02-05T04:08:24.259Z,53.51
2023-02-05T04:10:50.791Z,53.69
2023-02-05T04:13:17.289Z,53.66
2023-02-05T04:15:43.801Z,54.12
2023-02-05T04:18:10.338Z,53.96
2023-02-05T04:20:36.843Z,53.82
2023-02-05T04:23:03.346Z,53.96
2023-02-05T04:25:29.927Z,54.38
2023-02-05T04:27:56.519Z,54.52
2023-02-05T04:30:23.085Z,54.04
2023-02-05T04:32:49.606Z,53.75
2023-02-05T04:35:16.135Z,54.17
2023-02-05T04:37:42.602Z,54.33
2023-02-05T04:40:09.886Z,53.78
2023-02-05T04:42:36.429Z,54.32
2023-02-05T04:45:05.733Z,53.86
2023-02-05T04:47:33.163Z,53.87
2023-02-05T04:49:59.784Z,54.53
2023-02-05T04:52:26.306Z,54.00
2023-02-05T04:54:52.782Z,54.20
2023-02-05T04:57:19.277Z,53.89
2023-02-05T04:59:45.749Z,53.80
2023-02-05T05:02:12.270Z,53.68
2023-02-05T05:04:38.853Z,53.79
2023-02-05T05:07:05.376Z,54.19
2023-02-05T05:09:31.893Z,54.28
2023-02-05T05:11:58.466Z,54.34
2023-02-05T05:14:24.965Z,54.32
2023-02-05T05:16:51.429Z,53.91
2023-02-05T05:19:17.918Z,54.78
2023-02-05T05:21:44.474Z,54.34
2023-02-05T05:24:11.054Z,53.91
2023-02-05T05:26:39.225Z,54.35
2023-02-05T05:29:06.242Z,54.88
2023-02-05T05:31:32.787Z,54.47
2023-02-05T05:33:59.376Z,54.64
2023-02-05T05:36:25.926Z,54.79
2023-02-05T05:38:52.422Z,54.93
2023-02-05T05:41:43.936Z,55.19
2023-02-05T05:44:11.281Z,54.17
2023-02-05T05:46:37.838Z,54.43
2023-02-05T05:49:04.378Z,54.09
2023-02-05T05:51:32.687Z,55.08
2023-02-05T05:53:59.275Z,54.35
2023-02-05T05:56:25.766Z,54.21
2023-02-05T05:58:52.566Z,54.56
2023-02-05T06:01:21.979Z,54.28
2023-02-05T06:03:48.798Z,54.69
2023-02-05T06:06:15.443Z,55.14
2023-02-05T06:08:41.976Z,54.90
2023-02-05T06:11:08.639Z,54.81
2023-02-05T06:13:35.490Z,54.24
2023-02-05T06:16:02.346Z,54.57
2023-02-05T06:18:29.226Z,55.00
2023-02-05T06:20:55.802Z,54.76
2023-02-05T06:23:22.269Z,54.19
2023-02-05T06:25:48.949Z,54.34
2023-02-05T06:28:15.492Z,54.07
2023-02-05T06:30:42.031Z,54.29
2023-02-05T06:33:08.563Z,55.01
2023-02-05T06:35:35.367Z,54.98
2023-02-05T06:38:02.197Z,54.81
2023-02-05T06:40:28.834Z,55.34
2023-02-05T06:42:55.697Z,54.24
2023-02-05T06:45:22.726Z,54.38
2023-02-05T06:47:50.042Z,55.20
2023-02-05T06:50:16.574Z,54.37
2023-02-05T06:52:43.149Z,54.42
2023-02-05T06:55:09.685Z,54.91
2023-02-05T06:57:36.542Z,54.83
2023-02-05T07:00:07.127Z,54.61
2023-02-05T07:02:33.695Z,54.78
2023-02-05T07:05:00.271Z,55.15
2023-02-05T07:07:26.903Z,54.99
2023-02-05T07:09:53.475Z,54.77
2023-02-05T07:12:20.140Z,54.70
2023-02-05T07:14:46.790Z,54.71
2023-02-05T07:17:13.453Z,54.45
2023-02-05T07:19:39.982Z,54.69
2023-02-05T07:22:06.545Z,54.87
2023-02-05T07:24:33.054Z,54.18
2023-02-05T07:26:59.596Z,54.32
2023-02-05T07:29:27.143Z,55.15
2023-02-05T07:31:53.717Z,55.41
2023-02-05T07:34:20.211Z,54.12
2023-02-05T07:36:50.826Z,55.13
2023-02-05T07:41:44.453Z,54.04
2023-02-05T07:44:11.046Z,55.10
2023-02-05T07:46:37.594Z,54.78
2023-02-05T07:49:04.135Z,53.98
2023-02-05T07:51:30.736Z,54.19
2023-02-05T07:53:57.233Z,54.49
2023-02-05T07:56:25.946Z,53.97
2023-02-05T07:58:52.456Z,54.41
2023-02-05T08:01:19.046Z,54.74
2023-02-05T08:03:45.614Z,54.61
2023-02-05T08:06:14.972Z,54.79
2023-02-05T08:08:41.541Z,54.33
2023-02-05T08:11:08.507Z,54.17
2023-02-05T08:13:35.130Z,54.45
2023-02-05T08:16:05.669Z,54.55
2023-02-05T08:18:32.258Z,54.20
2023-02-05T08:20:58.888Z,54.61
2023-02-05T08:23:25.776Z,54.71
2023-02-05T08:25:57.378Z,54.44
2023-02-05T08:28:25.989Z,54.55
2023-02-05T08:30:52.607Z,54.09
2023-02-05T08:33:19.152Z,53.90
2023-02-05T08:35:45.755Z,54.16
2023-02-05T08:38:12.329Z,53.85
2023-02-05T08:40:39.016Z,54.24
2023-02-05T08:43:05.778Z,54.23
2023-02-05T08:45:32.573Z,53.88
2023-02-05T08:47:59.403Z,54.33
2023-02-05T08:50:26.009Z,54.28
2023-02-05T08:52:52.601Z,54.57
2023-02-05T08:55:19.332Z,54.09
2023-02-05T08:57:46.298Z,54.07
2023-02-05T09:00:14.976Z,54.73
2023-02-05T09:02:43.238Z,54.53
2023-02-05T09:05:10.013Z,53.71
2023-02-05T09:07:38.923Z,54.05
2023-02-05T09:10:08.168Z,53.36
2023-02-05T09:12:34.687Z,53.61
2023-02-05T09:15:01.210Z,52.87
2023-02-05T09:17:27.819Z,53.42
2023-02-05T09:19:54.884Z,53.29
2023-02-05T09:22:21.382Z,53.23
2023-02-05T09:24:47.922Z,53.81
2023-02-05T09:27:15.022Z,53.28
2023-02-05T09:29:42.081Z,53.52
2023-02-05T09:32:08.881Z,52.95
2023-02-05T09:34:35.395Z,53.57
2023-02-05T09:37:01.971Z,54.01
2023-02-05T09:40:13.097Z,53.42
2023-02-05T09:42:36.925Z,53.45
2023-02-05T09:45:06.373Z,53.66
2023-02-05T09:47:49.854Z,53.39
2023-02-05T09:50:16.348Z,53.36
2023-02-05T09:52:50.982Z,53.31
2023-02-05T09:55:42.374Z,53.75
2023-02-05T09:58:48.982Z,53.59
2023-02-05T10:01:21.557Z,53.33
2023-02-05T10:03:56.203Z,53.45
2023-02-05T10:06:35.831Z,53.33
2023-02-05T10:09:24.643Z,53.06
2023-02-05T10:12:13.078Z,53.18
2023-02-05T10:14:58.097Z,52.60
2023-02-05T10:17:49.596Z,52.98
2023-02-05T10:20:31.155Z,52.75
2023-02-05T10:23:15.777Z,52.70
2023-02-05T10:25:50.163Z,53.08
2023-02-05T10:28:29.442Z,52.80
2023-02-05T10:31:07.257Z,52.53
2023-02-05T10:33:56.828Z,51.48
2023-02-05T10:36:26.712Z,51.58
2023-02-05T10:38:56.746Z,51.52
2023-02-05T10:41:26.016Z,52.08
2023-02-05T10:44:03.271Z,51.92
2023-02-05T10:46:36.960Z,51.73
2023-02-05T10:49:33.495Z,51.82
2023-02-05T10:52:00.115Z,52.12
2023-02-05T10:54:29.578Z,51.51
2023-02-05T10:56:58.228Z,51.45
2023-02-05T10:59:28.026Z,51.11
2023-02-05T11:01:57.683Z,51.37
2023-02-05T11:05:10.041Z,50.97
2023-02-05T11:07:42.076Z,50.88
2023-02-05T11:10:30.146Z,51.13
2023-02-05T11:13:04.954Z,51.04
2023-02-05T11:15:33.580Z,51.12
2023-02-05T11:18:04.255Z,51.01
2023-02-05T11:20:38.486Z,51.25
2023-02-05T11:23:21.143Z,51.29
2023-02-05T11:26:07.252Z,51.12
2023-02-05T11:28:36.505Z,51.29
2023-02-05T11:31:21.598Z,51.38
2023-02-05T11:33:48.848Z,51.13
2023-02-05T11:36:21.382Z,51.25
2023-02-05T11:38:57.154Z,51.20
2023-02-05T11:41:48.071Z,51.22
2023-02-05T11:44:20.482Z,51.28
2023-02-05T11:46:47.947Z,51.42
2023-02-05T11:49:22.552Z,51.05
2023-02-05T11:51:52.989Z,51.22
2023-02-05T11:54:29.659Z,51.20
2023-02-05T11:57:08.142Z,51.28
2023-02-05T11:59:35.833Z,50.99
2023-02-05T12:02:24.188Z,51.12
2023-02-05T12:04:55.091Z,51.17
2023-02-05T12:07:24.802Z,50.94
2023-02-05T12:09:55.670Z,51.13
2023-02-05T12:12:39.460Z,51.11
2023-02-05T12:15:14.851Z,50.98
2023-02-05T12:18:13.704Z,50.66
2023-02-05T12:20:50.593Z,50.97
2023-02-05T12:23:23.543Z,50.74
2023-02-05T12:25:50.030Z,50.40
2023-02-05T12:28:44.446Z,50.38
2023-02-05T12:31:23.380Z,50.59
2023-02-05T12:34:06.405Z,50.48
2023-02-05T12:36:35.844Z,50.54
2023-02-05T12:39:30.273Z,50.25
2023-02-05T12:42:15.102Z,50.14
2023-02-05T12:45:03.822Z,49.98
2023-02-05T12:47:48.337Z,50.22
2023-02-05T12:50:42.757Z,49.73
2023-02-05T12:53:30.053Z,49.75
2023-02-05T12:56:28.284Z,49.72
2023-02-05T12:59:01.553Z,49.72
2023-02-05T13:01:58.052Z,49.94
2023-02-05T13:04:30.021Z,49.79
2023-02-05T13:07:11.671Z,49.85
2023-02-05T13:09:57.084Z,49.92
2023-02-05T13:12:28.712Z,50.14
2023-02-05T13:15:08.193Z,50.24
2023-02-05T13:17:40.419Z,50.27
2023-02-05T13:20:56.352Z,50.03
2023-02-05T13:23:43.954Z,50.14
2023-02-05T13:26:24.537Z,50.20
2023-02-05T13:28:56.960Z,50.14
2023-02-05T13:31:30.253Z,50.06
2023-02-05T13:34:03.067Z,49.65
2023-02-05T13:36:52.409Z,49.17
2023-02-05T13:39:33.836Z,49.35
2023-02-05T13:42:39.331Z,49.67
2023-02-05T13:45:52.529Z,49.23
2023-02-05T13:48:49.823Z,49.65
2023-02-05T13:51:39.180Z,49.79
2023-02-05T13:54:27.760Z,49.19
2023-02-05T13:57:49.301Z,49.32
2023-02-05T14:00:16.875Z,49.16
2023-02-05T14:02:48.063Z,49.46
2023-02-05T14:05:16.594Z,49.28
2023-02-05T14:07:50.813Z,49.26
2023-02-05T14:10:29.450Z,49.01
2023-02-05T14:13:13.121Z,49.36
2023-02-05T14:15:42.734Z,48.92
2023-02-05T14:18:40.567Z,48.88
2023-02-05T14:21:32.861Z,49.12
2023-02-05T14:24:02.714Z,48.99
2023-02-05T14:26:48.149Z,48.90
2023-02-05T14:29:42.752Z,49.01
2023-02-05T14:32:33.335Z,48.54
2023-02-05T14:35:32.492Z,48.73
2023-02-05T14:38:14.812Z,49.37
2023-02-05T14:40:41.751Z,49.43
2023-02-05T14:43:38.485Z,49.11
2023-02-05T14:46:19.686Z,49.43
2023-02-05T14:48:47.600Z,49.13
2023-02-05T14:51:25.804Z,49.10
2023-02-05T14:54:00.145Z,49.08
2023-02-05T14:56:40.452Z,49.00
2023-02-05T14:59:31.905Z,49.24
2023-02-05T15:01:59.747Z,48.91
2023-02-05T15:04:41.757Z,49.32
2023-02-05T15:07:20.334Z,49.09
2023-02-05T15:09:53.418Z,49.07
2023-02-05T15:12:53.724Z,49.37
2023-02-05T15:15:34.297Z,49.05
2023-02-05T15:18:05.780Z,49.41
2023-02-05T15:20:36.451Z,49.57
2023-02-05T15:23:29.150Z,49.63
2023-02-05T15:26:01.833Z,49.39
2023-02-05T15:28:41.741Z,49.38
2023-02-05T15:31:16.953Z,49.53
2023-02-05T15:33:54.440Z,49.72
2023-02-05T15:36:40.321Z,49.89
2023-02-05T15:39:24.129Z,49.55
2023-02-05T15:41:55.675Z,49.81
2023-02-05T15:44:34.605Z,49.86
2023-02-05T15:47:05.369Z,49.31
2023-02-05T15:49:36.671Z,50.01
2023-02-05T15:52:04.522Z,49.64
2023-02-05T15:54:34.043Z,49.60
2023-02-05T15:57:03.072Z,49.95
2023-02-05T15:59:31.598Z,50.10
2023-02-05T16:02:09.028Z,49.83
2023-02-05T16:04:38.800Z,50.21
2023-02-05T16:07:23.410Z,50.11
2023-02-05T16:09:54.021Z,50.00
2023-02-05T16:12:20.756Z,50.29
2023-02-05T16:14:57.712Z,49.96
2023-02-05T16:17:45.681Z,49.92
2023-02-05T16:20:22.360Z,50.25
2023-02-05T16:22:52.755Z,50.16
2023-02-05T16:25:19.197Z,50.56
2023-02-05T16:27:50.820Z,50.70
2023-02-05T16:30:23.389Z,50.62
2023-02-05T16:32:55.824Z,50.47
2023-02-05T16:35:39.521Z,50.47
2023-02-05T16:38:10.958Z,50.23
2023-02-05T16:40:43.216Z,50.39
2023-02-05T16:43:24.897Z,50.51
2023-02-05T16:46:06.739Z,50.84
2023-02-05T16:48:49.854Z,51.10
2023-02-05T16:51:28.530Z,50.75
2023-02-05T16:53:55.045Z,50.49
2023-02-05T16:56:25.193Z,50.39
2023-02-05T16:58:55.744Z,50.68
2023-02-05T17:01:37.016Z,50.74
2023-02-05T17:04:03.797Z,50.85
2023-02-05T17:06:35.413Z,50.85
2023-02-05T17:09:04.926Z,50.82
2023-02-05T17:11:37.695Z,50.57
2023-02-05T17:14:32.675Z,50.26
2023-02-05T17:17:04.187Z,50.24
2023-02-05T17:19:33.216Z,50.69
2023-02-05T17:22:14.791Z,51.01
2023-02-05T17:24:48.800Z,50.70
2023-02-05T17:27:27.245Z,50.63
2023-02-05T17:29:54.534Z,50.58
2023-02-05T17:32:21.965Z,50.52
2023-02-05T17:34:48.712Z,50.74
2023-02-05T17:37:15.376Z,50.40
2023-02-05T17:39:42.576Z,51.16
2023-02-05T17:42:25.444Z,50.82
2023-02-05T17:44:53.166Z,51.20
2023-02-05T17:47:20.123Z,51.00
2023-02-05T17:49:46.740Z,50.93
2023-02-05T17:52:15.376Z,51.13
2023-02-05T17:54:43.133Z,50.91
2023-02-05T17:57:18.882Z,51.05
2023-02-05T17:59:46.429Z,50.87
2023-02-05T18:02:14.035Z,50.62
2023-02-05T18:04:41.545Z,50.68
2023-02-05T18:07:33.570Z,51.61
2023-02-05T18:10:00.290Z,51.23
2023-02-05T18:12:26.994Z,50.68
2023-02-05T18:14:54.201Z,51.38
2023-02-05T18:17:20.789Z,51.40
2023-02-05T18:19:47.321Z,50.96
2023-02-05T18:22:14.235Z,51.58
2023-02-05T18:24:40.743Z,51.28
2023-02-05T18:27:12.150Z,51.19
2023-02-05T18:29:39.407Z,50.87
2023-02-05T18:32:06.629Z,51.27
2023-02-05T18:34:33.233Z,50.92
2023-02-05T18:37:00.031Z,51.22
2023-02-05T18:39:28.583Z,51.22
2023-02-05T18:41:56.234Z,50.98
2023-02-05T18:44:23.350Z,51.40
2023-02-05T18:46:49.968Z,51.63
2023-02-05T18:49:16.850Z,50.93
2023-02-05T18:51:43.708Z,51.43
2023-02-05T18:54:10.539Z,51.55
2023-02-05T18:56:37.292Z,50.95
2023-02-05T18:59:06.852Z,50.95
2023-02-05T19:01:38.679Z,51.27
2023-02-05T19:04:15.923Z,51.38
2023-02-05T19:06:44.458Z,51.21
2023-02-05T19:09:11.468Z,51.09
2023-02-05T19:11:41.306Z,51.39
2023-02-05T19:14:11.451Z,51.29
2023-02-05T19:16:39.711Z,51.25
2023-02-05T19:19:06.656Z,51.70
2023-02-05T19:21:33.695Z,51.13
2023-02-05T19:24:07.085Z,51.11
2023-02-05T19:26:35.481Z,51.61
2023-02-05T19:29:05.121Z,51.30
2023-02-05T19:31:33.645Z,51.26
2023-02-05T19:34:01.373Z,51.88
2023-02-05T19:36:28.454Z,51.90
2023-02-05T19:38:54.974Z,52.25
2023-02-05T19:41:24.373Z,52.12
2023-02-05T19:43:56.886Z,51.88
2023-02-05T19:46:26.848Z,51.58
2023-02-05T19:48:55.546Z,51.37
2023-02-05T19:51:22.352Z,52.20
2023-02-05T19:53:48.977Z,51.20
2023-02-05T19:56:22.181Z,51.72
2023-02-05T19:58:51.465Z,51.93
2023-02-05T20:01:19.635Z,51.82
2023-02-05T20:03:46.286Z,52.00
2023-02-05T20:06:15.969Z,52.33
2023-02-05T20:08:45.295Z,51.89
2023-02-05T20:11:12.684Z,51.74
2023-02-05T20:13:39.887Z,51.51
2023-02-05T20:16:13.175Z,52.07
2023-02-05T20:18:41.146Z,52.48
2023-02-05T20:21:12.682Z,51.62
2023-02-05T20:23:39.702Z,52.22
2023-02-05T20:26:07.823Z,51.82
2023-02-05T20:28:57.849Z,51.80
2023-02-05T20:31:35.245Z,52.22
2023-02-05T20:34:06.905Z,51.40
2023-02-05T20:36:34.929Z,52.20
2023-02-05T20:39:05.075Z,51.59
2023-02-05T20:41:31.959Z,51.71
2023-02-05T20:43:58.905Z,52.04
2023-02-05T20:46:26.439Z,52.31
2023-02-05T20:48:52.948Z,52.39
2023-02-05T20:51:22.205Z,52.59
2023-02-05T20:53:49.424Z,51.90
2023-02-05T20:56:20.124Z,52.01
2023-02-05T20:58:47.369Z,52.55
2023-02-05T21:01:20.623Z,51.82
2023-02-05T21:03:50.278Z,51.88
2023-02-05T21:06:18.707Z,52.40
2023-02-05T21:08:46.906Z,52.45
2023-02-05T21:11:15.099Z,52.12
2023-02-05T21:13:43.079Z,52.32
2023-02-05T21:16:11.807Z,52.71
2023-02-05T21:18:40.319Z,52.07
2023-02-05T21:21:08.434Z,52.30
2023-02-05T21:23:35.557Z,52.24
2023-02-05T21:26:02.355Z,52.37
2023-02-05T21:28:29.280Z,51.92
2023-02-05T21:31:07.769Z,52.55
2023-02-05T21:33:35.287Z,52.86
2023-02-05T21:36:10.418Z,52.87
2023-02-05T21:38:38.699Z,52.41
2023-02-05T21:41:13.574Z,52.60
2023-02-05T21:43:40.756Z,52.52
2023-02-05T21:46:10.131Z,51.85
2023-02-05T21:48:36.698Z,52.34
2023-02-05T21:51:08.717Z,52.10
2023-02-05T21:53:35.431Z,52.17
2023-02-05T21:56:03.579Z,52.66
2023-02-05T21:58:34.320Z,52.35
2023-02-05T22:01:13.146Z,52.24
2023-02-05T22:03:41.246Z,52.34
2023-02-05T22:06:08.806Z,51.85
2023-02-05T22:08:37.750Z,51.94
2023-02-05T22:11:06.445Z,52.01
2023-02-05T22:13:35.098Z,52.53
2023-02-05T22:16:13.009Z,52.92
2023-02-05T22:18:39.788Z,51.67
2023-02-05T22:21:23.636Z,52.70
2023-02-05T22:23:52.255Z,51.83
2023-02-05T22:26:24.731Z,52.39
2023-02-05T22:28:51.448Z,51.75
2023-02-05T22:31:20.033Z,51.63
2023-02-05T22:33:48.569Z,52.17
2023-02-05T22:36:16.721Z,52.25
2023-02-05T22:38:43.743Z,52.07
2023-02-05T22:41:12.668Z,51.91
2023-02-05T22:43:39.907Z,52.40
2023-02-05T22:46:09.614Z,51.97
2023-02-05T22:48:37.796Z,52.99
2023-02-05T22:51:09.870Z,52.26
2023-02-05T22:53:37.068Z,52.03
2023-02-05T22:56:06.538Z,52.54
2023-02-05T22:58:33.685Z,52.69
2023-02-05T23:01:11.128Z,52.12
2023-02-05T23:03:38.482Z,52.37
2023-02-05T23:06:13.636Z,52.33
2023-02-05T23:08:40.899Z,52.29
2023-02-05T23:11:10.573Z,51.81
2023-02-05T23:13:37.095Z,52.64
2023-02-05T23:16:15.338Z,52.29
2023-02-05T23:18:42.617Z,52.87
2023-02-05T23:21:18.049Z,52.91
2023-02-05T23:23:44.919Z,52.19
2023-02-05T23:26:18.050Z,52.70
2023-02-05T23:28:45.114Z,52.09
2023-02-05T23:31:11.772Z,52.51
2023-02-05T23:33:38.593Z,52.55
2023-02-05T23:36:06.823Z,52.41
2023-02-05T23:38:34.020Z,52.57
2023-02-05T23:41:01.020Z,51.84
2023-02-05T23:43:27.986Z,52.17
2023-02-05T23:45:54.979Z,52.01
2023-02-05T23:48:21.584Z,52.07
2023-02-05T23:50:54.620Z,52.48
2023-02-05T23:53:21.540Z,52.54
2023-02-05T23:55:49.746Z,52.94
2023-02-05T23:58:17.530Z,52.51
